Airport View

Enter AWOS ICAO identifier for current METAR.

ex. KFNL

KGXA 202158Z AUTO VRB04KT 10SM CLR 31/M05 A2988 RMK AO2 SLP088 WND DATA ESTMD T03081046

20 Oct 2020 22:49

Frequency: 413.2

Phone: 760-315-0639

Other Area AWOS: KVCV - KPMD - KEDW - K9L2

TAF KPMD 201740Z 2018/2118 32003KT P6SM SKC FM202200 28008KT P6SM SKC FM210200 25008KT P6SM SKC FM210600 19006KT P6SM SKC AMD NOT SKED